Time;durP1;ratioP1;P1;durP2;ratioP2;P2;SDS_P1;SDS_P2;PMS_P1;PMS_P2;Temp;Humidity;BMP_temperature;BMP_pressure;BME280_temperature;BME280_humidity;BME280_pressure;Samples;Min_cycle;Max_cycle;Signal;HPM_P1;HPM_P2
2022/04/17 00:04:21;;;;;;;;;;;7.80;1.00;;;;;;10377243;28;85165;-60
2022/04/17 00:09:22;;;;;;;;;;;7.80;99.90;;;;;;10375096;28;84216;-61
2022/04/17 00:14:22;;;;;;;;;;;7.70;1.00;;;;;;10373924;28;85396;-61
2022/04/17 00:19:23;;;;;;;;;;;7.70;1.00;;;;;;10374568;28;85060;-60
2022/04/17 00:24:26;;;;;;;;;;;7.50;99.90;;;;;;10373740;28;84973;-60
2022/04/17 00:29:27;;;;;;;;;;;7.40;1.00;;;;;;10354598;28;85979;-61
2022/04/17 00:34:29;;;;;;;;;;;7.30;1.00;;;;;;10374100;28;84971;-60
2022/04/17 00:39:30;;;;;;;;;;;7.30;99.90;;;;;;10373497;28;84808;-60
2022/04/17 00:44:31;;;;;;;;;;;7.30;1.00;;;;;;10375170;28;84188;-61
2022/04/17 00:49:32;;;;;;;;;;;7.20;1.00;;;;;;10380705;28;84876;-59
2022/04/17 00:54:33;;;;;;;;;;;7.20;1.00;;;;;;10357903;28;84947;-60
2022/04/17 00:59:33;;;;;;;;;;;7.10;1.00;;;;;;10338824;28;86556;-61
2022/04/17 01:04:34;;;;;;;;;;;7.10;99.90;;;;;;10372862;28;84290;-61
2022/04/17 01:09:35;;;;;;;;;;;7.10;99.90;;;;;;10371573;28;84223;-61
2022/04/17 01:14:39;;;;;;;;;;;7.00;1.00;;;;;;10338601;28;86745;-59
2022/04/17 01:19:40;;;;;;;;;;;7.00;1.00;;;;;;10371189;28;84571;-61
2022/04/17 01:30:00;;;;;;;;;;;7.00;1.00;;;;;;10369392;28;84198;-61
2022/04/17 01:35:00;;;;;;;;;;;7.00;1.00;;;;;;10371306;28;85007;-61
2022/04/17 01:40:01;;;;;;;;;;;6.90;1.00;;;;;;10352611;28;84215;-60
2022/04/17 01:45:01;;;;;;;;;;;6.90;1.00;;;;;;10371252;28;84941;-61
2022/04/17 01:50:02;;;;;;;;;;;6.90;99.90;;;;;;10369934;28;84921;-61
2022/04/17 01:55:03;;;;;;;;;;;6.90;1.00;;;;;;10370488;28;85014;-60
2022/04/17 02:00:03;;;;;;;;;;;6.90;1.00;;;;;;10370225;28;84310;-62
2022/04/17 02:05:05;;;;;;;;;;;6.80;1.00;;;;;;10371234;28;84535;-59
2022/04/17 02:10:06;;;;;;;;;;;6.80;1.00;;;;;;10371134;28;84733;-62
2022/04/17 02:15:07;;;;;;;;;;;6.80;1.00;;;;;;10372379;28;84833;-61
2022/04/17 02:20:08;;;;;;;;;;;6.80;1.00;;;;;;10371508;28;85284;-62
2022/04/17 02:25:09;;;;;;;;;;;6.80;1.00;;;;;;10369500;28;84977;-60
2022/04/17 02:30:10;;;;;;;;;;;6.80;1.00;;;;;;10424715;22;85132;-48
2022/04/17 02:35:10;;;;;;;;;;;6.70;1.00;;;;;;10408893;28;84118;-49
2022/04/17 02:40:11;;;;;;;;;;;6.70;4.70;;;;;;10408092;28;84139;-49
2022/04/17 02:45:12;;;;;;;;;;;6.60;99.90;;;;;;10408171;28;84860;-51
2022/04/17 02:50:13;;;;;;;;;;;6.60;99.90;;;;;;10408319;28;84240;-50
2022/04/17 02:55:14;;;;;;;;;;;6.50;99.90;;;;;;10407686;28;84891;-51
2022/04/17 03:00:15;;;;;;;;;;;6.40;99.90;;;;;;10407751;28;84253;-49
2022/04/17 03:10:35;;;;;;;;;;;6.40;1.00;;;;;;10405359;28;84660;-49
2022/04/17 03:15:37;;;;;;;;;;;6.40;1.00;;;;;;10407206;28;84957;-53
2022/04/17 03:20:38;;;;;;;;;;;6.30;1.00;;;;;;10395415;28;84897;-48
2022/04/17 03:25:39;;;;;;;;;;;6.30;1.00;;;;;;10388397;28;85336;-52
2022/04/17 03:30:40;;;;;;;;;;;6.30;1.00;;;;;;10412439;28;84104;-48
2022/04/17 03:35:41;;;;;;;;;;;6.30;1.00;;;;;;10413734;28;85368;-48
2022/04/17 03:40:42;;;;;;;;;;;6.20;1.00;;;;;;10414172;28;84976;-48
2022/04/17 03:45:46;;;;;;;;;;;6.10;1.00;;;;;;10413783;28;84275;-50
2022/04/17 03:50:47;;;;;;;;;;;6.10;1.00;;;;;;10413976;28;84765;-49
2022/04/17 03:55:48;;;;;;;;;;;6.10;1.00;;;;;;10413013;28;84128;-49
2022/04/17 04:00:48;;;;;;;;;;;6.00;1.00;;;;;;10413678;28;85102;-51
2022/04/17 04:05:49;;;;;;;;;;;6.00;1.00;;;;;;10413754;28;85370;-46
2022/04/17 04:10:49;;;;;;;;;;;5.90;1.00;;;;;;10413422;28;84936;-50
2022/04/17 04:15:50;;;;;;;;;;;5.80;6.80;;;;;;10412462;28;88882;-48
2022/04/17 04:20:51;;;;;;;;;;;5.70;99.90;;;;;;10412789;28;84847;-49
2022/04/17 04:25:51;;;;;;;;;;;5.70;99.90;;;;;;10412215;28;84765;-48
2022/04/17 04:30:52;;;;;;;;;;;5.60;99.90;;;;;;10413165;28;84853;-49
2022/04/17 04:35:52;;;;;;;;;;;5.50;99.90;;;;;;10412051;28;84949;-50
2022/04/17 04:40:53;;;;;;;;;;;5.50;99.90;;;;;;10394976;28;84793;-50
2022/04/17 04:46:06;;;;;;;;;;;5.50;99.90;;;;;;10411479;28;84284;-53
2022/04/17 04:51:07;;;;;;;;;;;5.60;99.90;;;;;;10414637;28;84969;-48
2022/04/17 04:56:08;;;;;;;;;;;5.60;99.90;;;;;;10411983;28;84028;-48
2022/04/17 05:01:08;;;;;;;;;;;5.60;99.90;;;;;;10411781;28;84047;-51
2022/04/17 05:06:09;;;;;;;;;;;5.60;99.90;;;;;;10410839;28;84916;-52
2022/04/17 05:11:09;;;;;;;;;;;5.60;99.90;;;;;;10411937;28;84278;-51
2022/04/17 05:16:10;;;;;;;;;;;5.60;99.90;;;;;;10392263;28;86946;-48
2022/04/17 05:21:10;;;;;;;;;;;5.70;99.90;;;;;;10410758;28;85342;-49
2022/04/17 05:26:11;;;;;;;;;;;5.70;99.90;;;;;;10409614;28;85028;-49
2022/04/17 05:31:12;;;;;;;;;;;5.70;99.90;;;;;;10410882;28;84201;-48
2022/04/17 05:36:12;;;;;;;;;;;5.80;99.90;;;;;;10409463;28;84261;-50
2022/04/17 05:41:13;;;;;;;;;;;5.80;99.90;;;;;;10392187;28;84848;-49
2022/04/17 05:46:14;;;;;;;;;;;6.00;99.90;;;;;;10408669;28;84538;-49
2022/04/17 05:51:14;;;;;;;;;;;6.00;99.90;;;;;;10408524;28;85056;-50
2022/04/17 05:56:15;;;;;;;;;;;6.10;99.90;;;;;;10407963;28;84158;-53
2022/04/17 06:01:16;;;;;;;;;;;6.20;72.80;;;;;;10410481;28;85081;-50
2022/04/17 06:06:17;;;;;;;;;;;6.40;1.00;;;;;;10406988;28;84077;-48
2022/04/17 06:11:17;;;;;;;;;;;6.50;1.00;;;;;;10407321;28;85233;-51
2022/04/17 06:16:18;;;;;;;;;;;6.70;1.00;;;;;;10407200;28;84808;-50
2022/04/17 06:21:19;;;;;;;;;;;7.00;1.00;;;;;;10407664;28;84873;-50
2022/04/17 06:26:19;;;;;;;;;;;7.40;99.90;;;;;;10405875;28;84994;-50
2022/04/17 06:31:20;;;;;;;;;;;7.70;1.00;;;;;;10388981;28;84151;-50
2022/04/17 06:36:20;;;;;;;;;;;8.20;1.00;;;;;;10406205;28;84181;-48
2022/04/17 06:41:21;;;;;;;;;;;8.60;81.00;;;;;;10407453;28;85323;-53
2022/04/17 06:46:22;;;;;;;;;;;9.10;1.00;;;;;;10388485;28;84207;-52
2022/04/17 06:51:24;;;;;;;;;;;9.60;99.90;;;;;;10389435;28;87046;-53
2022/04/17 06:56:24;;;;;;;;;;;10.60;8.70;;;;;;10407016;28;84931;-49
2022/04/17 07:01:25;;;;;;;;;;;11.40;1.00;;;;;;10406638;28;84813;-50
2022/04/17 07:06:25;;;;;;;;;;;12.20;1.00;;;;;;10412657;28;84776;-51
2022/04/17 07:11:27;;;;;;;;;;;12.60;1.00;;;;;;10414788;28;84825;-48
2022/04/17 07:16:27;;;;;;;;;;;13.30;99.90;;;;;;10412495;28;84225;-51
2022/04/17 07:21:28;;;;;;;;;;;13.70;1.00;;;;;;10413603;28;84046;-50
2022/04/17 07:26:28;;;;;;;;;;;14.00;1.00;;;;;;10411789;28;84028;-52
2022/04/17 07:31:29;;;;;;;;;;;14.40;99.90;;;;;;10413226;28;84816;-52
2022/04/17 07:36:30;;;;;;;;;;;14.90;1.00;;;;;;10393545;28;86891;-48
2022/04/17 07:41:30;;;;;;;;;;;15.10;50.80;;;;;;10412737;28;84929;-48
2022/04/17 07:46:31;;;;;;;;;;;14.80;39.30;;;;;;10411082;28;84783;-53
2022/04/17 07:51:31;;;;;;;;;;;14.70;3.90;;;;;;10412297;28;84223;-54
2022/04/17 07:56:32;;;;;;;;;;;14.30;1.00;;;;;;10411029;28;84922;-52
2022/04/17 08:01:39;;;;;;;;;;;15.40;15.40;;;;;;10412429;28;84773;-54
2022/04/17 08:06:39;;;;;;;;;;;16.30;1.00;;;;;;10411452;28;84434;-55
2022/04/17 08:11:40;;;;;;;;;;;16.90;1.00;;;;;;10411824;28;84733;-53
2022/04/17 08:16:40;;;;;;;;;;;17.20;1.00;;;;;;10411113;28;84881;-55
2022/04/17 08:21:41;;;;;;;;;;;17.50;1.00;;;;;;10413683;28;84098;-51
2022/04/17 08:26:42;;;;;;;;;;;18.00;1.00;;;;;;10414241;28;85091;-49
2022/04/17 08:31:43;;;;;;;;;;;18.60;1.00;;;;;;10413279;28;84122;-49
2022/04/17 08:36:43;;;;;;;;;;;19.20;1.00;;;;;;10411063;28;84374;-50
2022/04/17 08:41:45;;;;;;;;;;;20.20;99.90;;;;;;10394012;28;85064;-52
2022/04/17 08:46:45;;;;;;;;;;;20.80;99.90;;;;;;10410626;28;84074;-51
2022/04/17 08:51:48;;;;;;;;;;;20.80;99.90;;;;;;10412189;28;98504;-51
2022/04/17 08:56:48;;;;;;;;;;;20.90;99.90;;;;;;10391712;28;86157;-53
2022/04/17 09:01:49;;;;;;;;;;;20.90;99.90;;;;;;10412020;28;84900;-53
2022/04/17 09:06:50;;;;;;;;;;;21.30;99.90;;;;;;10410789;28;84218;-53
2022/04/17 09:11:53;;;;;;;;;;;21.80;99.90;;;;;;10411798;28;84217;-49
2022/04/17 09:16:54;;;;;;;;;;;21.60;99.90;;;;;;10408023;28;84888;-52
2022/04/17 09:21:58;;;;;;;;;;;21.50;99.90;;;;;;10410425;28;84236;-51
2022/04/17 09:26:59;;;;;;;;;;;21.40;99.90;;;;;;10410276;28;84721;-51
2022/04/17 09:32:03;;;;;;;;;;;21.90;99.90;;;;;;10411534;28;84176;-51
2022/04/17 09:37:10;;;;;;;;;;;22.50;99.90;;;;;;10409695;28;84331;-52
2022/04/17 09:42:11;;;;;;;;;;;22.10;99.90;;;;;;10411483;28;84332;-50
2022/04/17 09:47:14;;;;;;;;;;;22.80;99.90;;;;;;10409686;28;84191;-55
2022/04/17 09:52:14;;;;;;;;;;;23.20;99.90;;;;;;10392023;28;84983;-50
2022/04/17 09:57:19;;;;;;;;;;;23.20;99.90;;;;;;10410892;28;85246;-52
2022/04/17 10:02:20;;;;;;;;;;;22.80;75.20;;;;;;10415074;28;86519;-50
2022/04/17 10:07:22;;;;;;;;;;;22.80;99.90;;;;;;10405926;28;85319;-55
2022/04/17 10:12:24;;;;;;;;;;;23.40;98.20;;;;;;10414491;28;85018;-52
2022/04/17 10:17:24;;;;;;;;;;;23.50;37.10;;;;;;10413451;28;84940;-53
2022/04/17 10:22:26;;;;;;;;;;;22.70;29.70;;;;;;10418731;28;84802;-53
2022/04/17 10:27:30;;;;;;;;;;;23.10;31.20;;;;;;10404380;28;84845;-55
2022/04/17 10:32:39;;;;;;;;;;;23.70;1.00;;;;;;10413417;28;84407;-50
2022/04/17 10:37:43;;;;;;;;;;;23.40;1.00;;;;;;10400101;28;85157;-55
2022/04/17 10:42:57;;;;;;;;;;;23.70;1.00;;;;;;10411103;28;84924;-53
2022/04/17 10:48:09;;;;;;;;;;;24.20;1.00;;;;;;10406526;28;85159;-54
2022/04/17 10:53:25;;;;;;;;;;;24.50;1.00;;;;;;10406887;28;84898;-53
2022/04/17 10:58:45;;;;;;;;;;;24.40;1.00;;;;;;10382953;28;84759;-49
2022/04/17 11:03:49;;;;;;;;;;;24.30;1.00;;;;;;10394442;28;85017;-49
2022/04/17 11:08:57;;;;;;;;;;;24.20;1.00;;;;;;10382416;28;84902;-54
2022/04/17 11:14:08;;;;;;;;;;;23.70;1.00;;;;;;10382651;28;84289;-52
2022/04/17 11:19:10;;;;;;;;;;;24.50;1.00;;;;;;10382447;28;84173;-49
2022/04/17 11:24:11;;;;;;;;;;;23.80;1.00;;;;;;10362910;28;85403;-50
2022/04/17 11:29:11;;;;;;;;;;;24.00;1.00;;;;;;10374539;28;84907;-49
2022/04/17 11:34:12;;;;;;;;;;;24.10;1.00;;;;;;10375485;28;85808;-52
2022/04/17 11:39:12;;;;;;;;;;;24.40;1.00;;;;;;10377553;28;84986;-50
2022/04/17 11:44:13;;;;;;;;;;;24.10;1.00;;;;;;10374804;28;84190;-51
2022/04/17 11:49:14;;;;;;;;;;;24.60;1.00;;;;;;10374984;28;84177;-54
2022/04/17 11:54:32;;;;;;;;;;;24.00;1.00;;;;;;10389548;28;84807;-52
2022/04/17 11:59:46;;;;;;;;;;;24.20;1.00;;;;;;10378377;28;85721;-53
2022/04/17 12:04:48;;;;;;;;;;;24.50;1.00;;;;;;10373157;28;85125;-54
2022/04/17 12:09:49;;;;;;;;;;;23.40;1.00;;;;;;10374322;28;84823;-52
2022/04/17 12:14:52;;;;;;;;;;;23.80;1.00;;;;;;10375627;28;84171;-54
2022/04/17 12:19:53;;;;;;;;;;;22.50;1.00;;;;;;10374708;28;84917;-53
2022/04/17 12:24:53;;;;;;;;;;;23.60;1.00;;;;;;10376484;28;84161;-55
2022/04/17 12:29:56;;;;;;;;;;;23.60;1.00;;;;;;10373790;28;84182;-54
2022/04/17 12:34:58;;;;;;;;;;;23.90;1.00;;;;;;10375434;28;86954;-53
2022/04/17 12:40:10;;;;;;;;;;;23.90;1.00;;;;;;10376469;28;84151;-54
2022/04/17 12:45:21;;;;;;;;;;;24.40;1.00;;;;;;10377157;28;85299;-49
2022/04/17 12:50:22;;;;;;;;;;;24.50;1.00;;;;;;10376502;28;87035;-50
2022/04/17 12:55:29;;;;;;;;;;;25.00;1.00;;;;;;10374916;28;86053;-50
2022/04/17 13:00:30;;;;;;;;;;;24.30;1.00;;;;;;10378027;28;84790;-48
2022/04/17 13:05:31;;;;;;;;;;;24.40;1.00;;;;;;10375873;28;85634;-48
2022/04/17 13:10:31;;;;;;;;;;;24.40;1.00;;;;;;10376253;28;89258;-54
2022/04/17 13:15:33;;;;;;;;;;;24.90;1.00;;;;;;10373213;28;84274;-52
2022/04/17 13:20:34;;;;;;;;;;;24.90;1.00;;;;;;10369258;28;84895;-54
2022/04/17 13:25:34;;;;;;;;;;;25.00;1.00;;;;;;10368394;28;84870;-54
2022/04/17 13:30:35;;;;;;;;;;;24.10;1.00;;;;;;10377654;28;84983;-51
2022/04/17 13:35:36;;;;;;;;;;;23.90;1.00;;;;;;10380877;28;84305;-53
2022/04/17 13:40:36;;;;;;;;;;;24.30;1.00;;;;;;10377196;28;84763;-54
2022/04/17 13:45:38;;;;;;;;;;;24.60;1.00;;;;;;10363980;28;85260;-54
2022/04/17 13:50:39;;;;;;;;;;;24.40;1.00;;;;;;10382064;28;84104;-52
2022/04/17 13:55:40;;;;;;;;;;;24.70;1.00;;;;;;10375085;28;84717;-53
2022/04/17 14:00:41;;;;;;;;;;;24.90;1.00;;;;;;10380640;28;85055;-52
2022/04/17 14:05:41;;;;;;;;;;;24.80;1.00;;;;;;10378580;28;84264;-52
2022/04/17 14:10:42;;;;;;;;;;;23.90;1.00;;;;;;10385315;28;85210;-54
2022/04/17 14:15:43;;;;;;;;;;;24.00;1.00;;;;;;10381673;28;84432;-54
2022/04/17 14:20:46;;;;;;;;;;;24.60;1.00;;;;;;10385701;28;84313;-53
2022/04/17 14:25:47;;;;;;;;;;;24.20;1.00;;;;;;10378901;28;84894;-50
2022/04/17 14:30:48;;;;;;;;;;;23.60;1.00;;;;;;10398263;22;85902;-49
2022/04/17 14:35:56;;;;;;;;;;;23.30;1.00;;;;;;10380817;28;84845;-54
2022/04/17 14:40:57;;;;;;;;;;;22.20;1.00;;;;;;10346484;28;85227;-49
2022/04/17 14:45:57;;;;;;;;;;;21.20;1.00;;;;;;10338146;28;84977;-49
2022/04/17 14:51:00;;;;;;;;;;;20.50;1.00;;;;;;10341770;28;84889;-49
2022/04/17 14:56:02;;;;;;;;;;;20.00;1.00;;;;;;10336264;28;84284;-54
2022/04/17 15:01:02;;;;;;;;;;;19.10;1.00;;;;;;10337764;28;86109;-49
2022/04/17 15:06:03;;;;;;;;;;;19.00;1.00;;;;;;10332027;28;84277;-49
2022/04/17 15:11:04;;;;;;;;;;;18.90;1.00;;;;;;10328011;28;86934;-50
2022/04/17 15:16:04;;;;;;;;;;;18.60;1.00;;;;;;10330638;28;84961;-51
2022/04/17 15:21:05;;;;;;;;;;;18.30;1.00;;;;;;10332767;28;85062;-53
2022/04/17 15:26:07;;;;;;;;;;;18.30;1.00;;;;;;10333314;28;85125;-53
2022/04/17 15:31:07;;;;;;;;;;;18.40;1.00;;;;;;10357690;28;85659;-47
2022/04/17 15:36:08;;;;;;;;;;;18.10;1.00;;;;;;10356755;28;85337;-48
2022/04/17 15:41:09;;;;;;;;;;;17.70;1.00;;;;;;10368110;28;83991;-50
2022/04/17 15:51:29;;;;;;;;;;;17.60;1.00;;;;;;10373569;28;84187;-47
2022/04/17 15:56:30;;;;;;;;;;;17.50;1.00;;;;;;10371787;28;84962;-51
2022/04/17 16:01:31;;;;;;;;;;;17.50;1.00;;;;;;10354618;28;85265;-50
2022/04/17 16:06:31;;;;;;;;;;;17.30;1.00;;;;;;10350984;28;84849;-48
2022/04/17 16:11:32;;;;;;;;;;;17.20;1.00;;;;;;10351034;28;87003;-47
2022/04/17 16:16:32;;;;;;;;;;;17.20;1.00;;;;;;10370490;28;84811;-47
2022/04/17 16:21:33;;;;;;;;;;;17.20;1.00;;;;;;10372136;28;84800;-48
2022/04/17 16:26:33;;;;;;;;;;;17.20;1.00;;;;;;10370579;28;84915;-53
2022/04/17 16:31:34;;;;;;;;;;;17.10;1.00;;;;;;10371175;28;84181;-49
2022/04/17 16:36:35;;;;;;;;;;;17.10;1.00;;;;;;10361201;28;84601;-49
2022/04/17 16:41:37;;;;;;;;;;;17.00;1.00;;;;;;10370490;28;85003;-48
2022/04/17 16:46:37;;;;;;;;;;;16.90;1.00;;;;;;10367578;28;84175;-48
2022/04/17 16:51:38;;;;;;;;;;;16.90;1.00;;;;;;10369089;28;85085;-47
2022/04/17 16:56:40;;;;;;;;;;;16.80;1.00;;;;;;10366781;28;84128;-44
2022/04/17 17:01:50;;;;;;;;;;;16.70;1.00;;;;;;10362219;28;84170;-49
2022/04/17 17:06:51;;;;;;;;;;;16.70;1.00;;;;;;10368680;28;84082;-48
2022/04/17 17:11:51;;;;;;;;;;;16.50;1.00;;;;;;10363621;28;98831;-48
2022/04/17 17:16:52;;;;;;;;;;;16.40;1.00;;;;;;10369512;28;85029;-50
2022/04/17 17:21:52;;;;;;;;;;;16.20;1.00;;;;;;10345464;28;84061;-45
2022/04/17 17:26:53;;;;;;;;;;;16.20;1.00;;;;;;10352478;28;84894;-50
2022/04/17 17:31:53;;;;;;;;;;;16.10;1.00;;;;;;10351853;28;84817;-54
2022/04/17 17:36:54;;;;;;;;;;;16.00;1.00;;;;;;10338133;28;84297;-46
2022/04/17 17:41:55;;;;;;;;;;;15.90;1.00;;;;;;10312238;28;87021;-48
2022/04/17 17:46:56;;;;;;;;;;;15.80;1.00;;;;;;10354363;28;84853;-51
2022/04/17 17:51:57;;;;;;;;;;;15.90;1.00;;;;;;10369519;28;84068;-47
2022/04/17 17:56:58;;;;;;;;;;;15.70;1.00;;;;;;10369356;28;84821;-50
2022/04/17 18:02:01;;;;;;;;;;;15.60;1.00;;;;;;10349269;28;86110;-47
2022/04/17 18:07:02;;;;;;;;;;;15.60;1.00;;;;;;10361377;28;84496;-48
2022/04/17 18:17:22;;;;;;;;;;;15.50;1.00;;;;;;10369399;28;84725;-47
2022/04/17 18:22:38;;;;;;;;;;;15.40;1.00;;;;;;10370084;28;85942;-45
2022/04/17 18:27:39;;;;;;;;;;;15.20;1.00;;;;;;10369115;28;84005;-47
2022/04/17 18:32:40;;;;;;;;;;;15.10;1.00;;;;;;10369616;28;84029;-48
2022/04/17 18:37:41;;;;;;;;;;;14.90;1.00;;;;;;10368233;28;84126;-46
2022/04/17 18:42:42;;;;;;;;;;;14.80;1.00;;;;;;10368370;28;85204;-51
2022/04/17 18:47:43;;;;;;;;;;;14.70;1.00;;;;;;10361584;28;84252;-49
2022/04/17 18:52:43;;;;;;;;;;;14.50;1.00;;;;;;10366494;28;84705;-47
2022/04/17 18:57:46;;;;;;;;;;;14.50;1.00;;;;;;10350400;28;85914;-49
2022/04/17 19:02:46;;;;;;;;;;;14.30;1.00;;;;;;10375458;28;84713;-47
2022/04/17 19:07:47;;;;;;;;;;;14.30;1.00;;;;;;10356474;28;84865;-47
2022/04/17 19:18:06;;;;;;;;;;;14.00;1.00;;;;;;10375599;28;84238;-49
2022/04/17 19:23:07;;;;;;;;;;;14.00;1.00;;;;;;10355989;28;85079;-49
2022/04/17 19:28:07;;;;;;;;;;;13.90;1.00;;;;;;10371358;28;84853;-45
2022/04/17 19:38:27;;;;;;;;;;;13.70;1.00;;;;;;10373654;28;84217;-51
2022/04/17 19:43:28;;;;;;;;;;;13.70;1.00;;;;;;10375804;28;84951;-49
2022/04/17 19:48:28;;;;;;;;;;;13.50;1.00;;;;;;10374327;28;84228;-47
2022/04/17 19:53:29;;;;;;;;;;;13.40;1.00;;;;;;10356098;28;85072;-50
2022/04/17 19:58:30;;;;;;;;;;;13.30;1.00;;;;;;10343118;28;84279;-47
2022/04/17 20:03:30;;;;;;;;;;;13.30;1.00;;;;;;10344917;28;84692;-52
2022/04/17 20:08:31;;;;;;;;;;;13.10;1.00;;;;;;10332204;28;84956;-52
2022/04/17 20:13:32;;;;;;;;;;;13.10;1.00;;;;;;10337205;28;84852;-48
2022/04/17 20:18:35;;;;;;;;;;;12.90;1.00;;;;;;10335676;28;84924;-54
2022/04/17 20:23:35;;;;;;;;;;;12.80;1.00;;;;;;10366453;28;85206;-50
2022/04/17 20:28:36;;;;;;;;;;;12.70;1.00;;;;;;10382904;22;84320;-50
2022/04/17 20:33:36;;;;;;;;;;;12.60;1.00;;;;;;10362522;28;84196;-52
2022/04/17 20:38:37;;;;;;;;;;;12.50;1.00;;;;;;10369372;28;84312;-53
2022/04/17 20:54:00;;;;;;;;;;;12.10;1.00;;;;;;10369815;28;84216;-50
2022/04/17 20:59:00;;;;;;;;;;;12.00;1.00;;;;;;10368310;28;85187;-49
2022/04/17 21:04:04;;;;;;;;;;;12.00;1.00;;;;;;10369632;28;84678;-50
2022/04/17 21:09:07;;;;;;;;;;;11.90;1.00;;;;;;10367692;28;84259;-47
2022/04/17 21:14:07;;;;;;;;;;;11.80;1.00;;;;;;10368850;28;84926;-48
2022/04/17 21:19:08;;;;;;;;;;;11.70;1.00;;;;;;10368297;28;84411;-49
2022/04/17 21:24:08;;;;;;;;;;;11.70;1.00;;;;;;10367719;28;84929;-48
2022/04/17 21:29:09;;;;;;;;;;;11.60;1.00;;;;;;10367393;28;85380;-50
2022/04/17 21:34:10;;;;;;;;;;;11.50;1.00;;;;;;10369004;28;84928;-47
2022/04/17 21:39:11;;;;;;;;;;;11.40;1.00;;;;;;10353310;28;84180;-47
2022/04/17 21:44:11;;;;;;;;;;;11.30;1.00;;;;;;10370351;28;84841;-48
2022/04/17 21:49:12;;;;;;;;;;;11.20;1.00;;;;;;10370408;28;84764;-48
2022/04/17 21:54:12;;;;;;;;;;;11.10;1.00;;;;;;10369467;28;84113;-48
2022/04/17 21:59:13;;;;;;;;;;;11.00;1.00;;;;;;10369520;28;85078;-48
2022/04/17 22:04:29;;;;;;;;;;;11.00;1.00;;;;;;10370047;28;84232;-49
2022/04/17 22:09:30;;;;;;;;;;;10.90;1.00;;;;;;10368711;28;84723;-52
2022/04/17 22:14:30;;;;;;;;;;;10.80;1.00;;;;;;10369802;28;85327;-48
2022/04/17 22:19:31;;;;;;;;;;;10.80;1.00;;;;;;10368288;28;84987;-49
2022/04/17 22:24:31;;;;;;;;;;;10.70;1.00;;;;;;10370082;28;84962;-48
2022/04/17 22:29:32;;;;;;;;;;;10.70;1.00;;;;;;10367284;28;84322;-49
2022/04/17 22:34:32;;;;;;;;;;;10.70;1.00;;;;;;10366789;28;84939;-55
2022/04/17 22:39:33;;;;;;;;;;;10.60;1.00;;;;;;10368121;28;84228;-49
2022/04/17 22:44:33;;;;;;;;;;;10.60;1.00;;;;;;10367744;28;84824;-51
2022/04/17 22:49:34;;;;;;;;;;;10.50;1.00;;;;;;10349322;28;86068;-47
2022/04/17 22:54:34;;;;;;;;;;;10.30;1.00;;;;;;10367131;28;89023;-49
2022/04/17 22:59:35;;;;;;;;;;;10.30;1.00;;;;;;10367630;28;84344;-48
2022/04/17 23:04:35;;;;;;;;;;;10.20;1.00;;;;;;10368106;28;84011;-48
2022/04/17 23:09:36;;;;;;;;;;;10.10;1.00;;;;;;10365891;28;84948;-48
2022/04/17 23:14:37;;;;;;;;;;;10.00;1.00;;;;;;10367191;28;84871;-49
2022/04/17 23:19:37;;;;;;;;;;;10.10;1.00;;;;;;10366533;28;85380;-47
2022/04/17 23:24:38;;;;;;;;;;;10.00;1.00;;;;;;10349332;28;84788;-51
2022/04/17 23:29:38;;;;;;;;;;;9.90;1.00;;;;;;10365770;28;84008;-52
2022/04/17 23:34:39;;;;;;;;;;;9.90;1.00;;;;;;10367593;28;84933;-49
2022/04/17 23:39:39;;;;;;;;;;;9.80;1.00;;;;;;10366705;28;84274;-48
2022/04/17 23:44:40;;;;;;;;;;;9.70;1.00;;;;;;10367423;28;85050;-50
2022/04/17 23:49:40;;;;;;;;;;;9.60;1.00;;;;;;10372749;28;84196;-47
2022/04/17 23:54:41;;;;;;;;;;;9.60;1.00;;;;;;10373924;28;84096;-48
2022/04/17 23:59:41;;;;;;;;;;;9.60;1.00;;;;;;10372448;28;85072;-47
